createdAt,value
2022-12-03T00:00:51.715Z,87.04
2022-12-03T00:01:51.681Z,87.04
2022-12-03T00:02:51.833Z,86.94
2022-12-03T00:03:51.787Z,86.94
2022-12-03T00:04:51.954Z,86.83
2022-12-03T00:05:51.634Z,86.94
2022-12-03T00:06:51.633Z,86.83
2022-12-03T00:07:51.689Z,86.94
2022-12-03T00:08:51.591Z,86.98
2022-12-03T00:09:51.577Z,86.94
2022-12-03T00:10:51.559Z,86.83
2022-12-03T00:11:51.544Z,86.94
2022-12-03T00:12:51.534Z,86.83
2022-12-03T00:13:51.518Z,86.83
2022-12-03T00:14:51.504Z,86.73
2022-12-03T00:15:51.554Z,86.73
2022-12-03T00:16:51.502Z,86.83
2022-12-03T00:17:51.465Z,86.94
2022-12-03T00:18:51.456Z,87.04
2022-12-03T00:19:51.442Z,86.94
2022-12-03T00:20:51.428Z,87.08
2022-12-03T00:21:51.414Z,87.08
2022-12-03T00:22:51.401Z,86.94
2022-12-03T00:23:51.385Z,86.94
2022-12-03T00:24:51.944Z,86.98
2022-12-03T00:25:51.359Z,86.98
2022-12-03T00:26:51.347Z,86.94
2022-12-03T00:27:51.329Z,86.98
2022-12-03T00:28:51.317Z,86.98
2022-12-03T00:29:51.304Z,86.88
2022-12-03T00:30:51.371Z,86.88
2022-12-03T00:31:51.278Z,86.98
2022-12-03T00:32:51.289Z,86.98
2022-12-03T00:33:51.253Z,86.98
2022-12-03T00:34:51.685Z,86.98
2022-12-03T00:35:51.225Z,86.98
2022-12-03T00:36:51.208Z,86.98
2022-12-03T00:37:51.196Z,86.88
2022-12-03T00:38:51.181Z,86.88
2022-12-03T00:39:51.166Z,86.98
2022-12-03T00:40:51.156Z,86.88
2022-12-03T00:41:51.544Z,87.02
2022-12-03T00:42:51.134Z,86.91
2022-12-03T00:43:51.115Z,86.91
2022-12-03T00:44:51.461Z,86.91
2022-12-03T00:45:51.093Z,86.91
2022-12-03T00:46:51.186Z,86.91
2022-12-03T00:47:51.069Z,86.81
2022-12-03T00:48:51.074Z,86.81
2022-12-03T00:49:51.037Z,86.81
2022-12-03T00:50:51.022Z,86.81
2022-12-03T00:51:51.006Z,86.71
2022-12-03T00:52:50.997Z,86.81
2022-12-03T00:53:50.979Z,86.81
2022-12-03T00:54:51.366Z,86.71
2022-12-03T00:55:50.951Z,86.81
2022-12-03T00:56:50.941Z,86.67
2022-12-03T00:57:50.929Z,86.81
2022-12-03T00:58:50.915Z,86.75
2022-12-03T00:59:50.898Z,86.71
2022-12-03T01:00:50.889Z,86.71
2022-12-03T01:01:50.978Z,86.81
2022-12-03T01:02:50.861Z,86.81
2022-12-03T01:03:50.844Z,86.81
2022-12-03T01:04:51.265Z,86.91
2022-12-03T01:05:50.815Z,86.81
2022-12-03T01:06:50.807Z,86.91
2022-12-03T01:07:50.925Z,87.02
2022-12-03T01:08:50.781Z,86.91
2022-12-03T01:09:50.762Z,87.06
2022-12-03T01:10:50.753Z,87.12
2022-12-03T01:11:50.738Z,87.27
2022-12-03T01:12:50.726Z,87.23
2022-12-03T01:13:50.711Z,87.48
2022-12-03T01:14:50.935Z,87.58
2022-12-03T01:15:50.765Z,87.58
2022-12-03T01:16:50.669Z,87.79
2022-12-03T01:17:50.654Z,87.79
2022-12-03T01:18:50.638Z,87.58
2022-12-03T01:19:50.622Z,87.83
2022-12-03T01:20:50.634Z,87.68
2022-12-03T01:21:50.597Z,87.62
2022-12-03T01:22:50.590Z,87.73
2022-12-03T01:23:50.577Z,87.62
2022-12-03T01:24:50.818Z,87.48
2022-12-03T01:25:50.544Z,87.48
2022-12-03T01:26:50.540Z,87.52
2022-12-03T01:27:50.518Z,87.52
2022-12-03T01:28:50.507Z,87.37
2022-12-03T01:29:50.488Z,87.52
2022-12-03T01:30:50.557Z,87.52
2022-12-03T01:31:50.459Z,87.41
2022-12-03T01:32:50.446Z,87.41
2022-12-03T01:33:50.431Z,87.30
2022-12-03T01:34:50.902Z,87.30
2022-12-03T01:35:50.402Z,87.41
2022-12-03T01:36:50.411Z,87.20
2022-12-03T01:37:50.378Z,87.20
2022-12-03T01:38:50.470Z,87.06
2022-12-03T01:39:50.353Z,87.16
2022-12-03T01:40:50.342Z,87.06
2022-12-03T01:41:50.332Z,86.96
2022-12-03T01:42:50.313Z,86.99
2022-12-03T01:43:50.297Z,87.10
2022-12-03T01:44:50.532Z,86.96
2022-12-03T01:45:50.270Z,86.96
2022-12-03T01:46:50.538Z,86.85
2022-12-03T01:47:50.242Z,86.89
2022-12-03T01:48:50.222Z,86.85
2022-12-03T01:49:50.212Z,86.75
2022-12-03T01:50:50.194Z,86.75
2022-12-03T01:51:50.185Z,86.75
2022-12-03T01:52:50.190Z,86.75
2022-12-03T01:53:50.158Z,86.75
2022-12-03T01:54:50.210Z,86.75
2022-12-03T01:55:50.134Z,86.85
2022-12-03T01:56:50.116Z,86.85
2022-12-03T01:57:50.111Z,86.91
2022-12-03T01:58:50.089Z,87.06
2022-12-03T01:59:50.081Z,87.06
2022-12-03T02:00:50.065Z,87.06
2022-12-03T02:01:50.103Z,87.06
2022-12-03T02:02:50.029Z,87.06
2022-12-03T02:03:50.097Z,87.06
2022-12-03T02:04:50.045Z,87.16
2022-12-03T02:05:49.993Z,87.06
2022-12-03T02:06:49.981Z,87.27
2022-12-03T02:07:50.078Z,87.37
2022-12-03T02:08:49.976Z,87.37
2022-12-03T02:09:49.939Z,87.37
2022-12-03T02:10:49.918Z,87.23
2022-12-03T02:11:49.909Z,87.37
2022-12-03T02:12:49.893Z,87.27
2022-12-03T02:13:49.881Z,87.27
2022-12-03T02:14:50.145Z,87.37
2022-12-03T02:15:49.934Z,87.48
2022-12-03T02:16:49.844Z,87.48
2022-12-03T02:17:49.826Z,87.58
2022-12-03T02:18:49.815Z,87.58
2022-12-03T02:19:49.800Z,87.48
2022-12-03T02:20:49.788Z,87.48
2022-12-03T02:21:49.773Z,87.48
2022-12-03T02:22:49.757Z,87.37
2022-12-03T02:23:49.747Z,87.37
2022-12-03T02:24:49.874Z,87.23
2022-12-03T02:25:49.720Z,87.27
2022-12-03T02:26:49.702Z,87.37
2022-12-03T02:27:49.689Z,87.37
2022-12-03T02:28:49.673Z,87.37
2022-12-03T02:29:49.659Z,87.27
2022-12-03T02:30:49.648Z,87.27
2022-12-03T02:31:49.720Z,87.23
2022-12-03T02:32:49.618Z,87.27
2022-12-03T02:33:49.608Z,87.27
2022-12-03T02:34:49.596Z,87.16
2022-12-03T02:35:49.583Z,87.27
2022-12-03T02:36:49.568Z,87.16
2022-12-03T02:37:49.561Z,87.27
2022-12-03T02:38:49.536Z,87.12
2022-12-03T02:39:49.523Z,87.27
2022-12-03T02:40:49.535Z,87.12
2022-12-03T02:41:49.497Z,87.23
2022-12-03T02:42:49.488Z,87.27
2022-12-03T02:43:49.477Z,87.27
2022-12-03T02:44:49.462Z,87.27
2022-12-03T02:45:49.450Z,87.48
2022-12-03T02:46:49.515Z,87.37
2022-12-03T02:47:49.423Z,87.27
2022-12-03T02:48:49.409Z,87.27
2022-12-03T02:49:49.395Z,87.16
2022-12-03T02:50:49.377Z,87.27
2022-12-03T02:51:49.414Z,87.27
2022-12-03T02:52:49.349Z,87.27
2022-12-03T02:53:49.334Z,87.27
2022-12-03T02:54:49.320Z,87.27
2022-12-03T02:55:49.307Z,87.33
2022-12-03T02:56:49.317Z,87.27
2022-12-03T02:57:49.283Z,87.37
2022-12-03T02:58:49.271Z,87.37
2022-12-03T02:59:49.257Z,87.37
2022-12-03T03:00:49.321Z,87.37
2022-12-03T03:01:49.314Z,87.43
2022-12-03T03:02:49.217Z,87.48
2022-12-03T03:03:49.206Z,87.48
2022-12-03T03:04:49.195Z,87.33
2022-12-03T03:05:49.181Z,87.37
2022-12-03T03:06:49.157Z,87.33
2022-12-03T03:07:49.215Z,87.43
2022-12-03T03:08:49.132Z,87.48
2022-12-03T03:09:49.120Z,87.43
2022-12-03T03:10:49.111Z,87.54
2022-12-03T03:11:49.099Z,87.48
2022-12-03T03:12:49.105Z,87.43
2022-12-03T03:13:49.069Z,87.48
2022-12-03T03:14:49.049Z,87.33
2022-12-03T03:15:49.042Z,87.33
2022-12-03T03:16:49.083Z,87.33
2022-12-03T03:17:49.014Z,87.33
2022-12-03T03:18:48.995Z,87.27
2022-12-03T03:19:48.988Z,87.33
2022-12-03T03:20:48.971Z,87.37
2022-12-03T03:21:48.961Z,87.33
2022-12-03T03:22:48.946Z,87.37
2022-12-03T03:23:48.937Z,87.27
2022-12-03T03:24:48.919Z,87.23
2022-12-03T03:25:48.907Z,87.27
2022-12-03T03:26:48.894Z,87.23
2022-12-03T03:27:48.880Z,87.12
2022-12-03T03:28:48.890Z,87.12
2022-12-03T03:29:48.852Z,87.37
2022-12-03T03:30:48.834Z,87.27
2022-12-03T03:31:48.899Z,87.33
2022-12-03T03:32:48.808Z,87.33
2022-12-03T03:33:48.806Z,87.23
2022-12-03T03:34:48.787Z,87.23
2022-12-03T03:35:48.770Z,87.27
2022-12-03T03:36:48.757Z,87.23
2022-12-03T03:37:48.742Z,87.23
2022-12-03T03:38:48.728Z,87.23
2022-12-03T03:39:48.717Z,87.06
2022-12-03T03:40:48.703Z,87.02
2022-12-03T03:41:48.691Z,87.02
2022-12-03T03:42:48.676Z,87.02
2022-12-03T03:43:48.667Z,87.12
2022-12-03T03:44:48.678Z,87.02
2022-12-03T03:45:48.690Z,87.12
2022-12-03T03:46:48.621Z,87.27
2022-12-03T03:47:48.610Z,87.12
2022-12-03T03:48:48.621Z,87.23
2022-12-03T03:49:48.684Z,87.23
2022-12-03T03:50:48.572Z,87.23
2022-12-03T03:51:48.553Z,87.33
2022-12-03T03:52:48.548Z,87.33
2022-12-03T03:53:48.526Z,87.33
2022-12-03T03:54:48.591Z,87.54
2022-12-03T03:55:48.506Z,87.54
2022-12-03T03:56:48.685Z,87.54
2022-12-03T03:57:48.471Z,87.54
2022-12-03T03:58:48.465Z,87.54
2022-12-03T03:59:48.450Z,87.54
2022-12-03T04:00:48.478Z,87.65
2022-12-03T04:01:48.514Z,87.54
2022-12-03T04:02:48.408Z,87.65
2022-12-03T04:03:48.514Z,87.65
2022-12-03T04:04:48.473Z,87.75
2022-12-03T04:05:48.372Z,87.85
2022-12-03T04:06:48.356Z,87.85
2022-12-03T04:07:48.478Z,87.96
2022-12-03T04:08:48.328Z,88.06
2022-12-03T04:09:48.312Z,88.17
2022-12-03T04:10:48.301Z,88.06
2022-12-03T04:11:48.287Z,88.06
2022-12-03T04:12:48.272Z,88.17
2022-12-03T04:13:48.259Z,88.27
2022-12-03T04:14:48.250Z,88.37
2022-12-03T04:15:48.237Z,88.48
2022-12-03T04:16:48.297Z,88.37
2022-12-03T04:17:48.209Z,88.48
2022-12-03T04:18:48.196Z,88.48
2022-12-03T04:19:48.173Z,88.48
2022-12-03T04:20:48.162Z,88.58
2022-12-03T04:21:48.153Z,88.58
2022-12-03T04:22:48.144Z,88.58
2022-12-03T04:23:48.124Z,88.79
2022-12-03T04:24:48.114Z,89.00
2022-12-03T04:25:48.102Z,89.00
2022-12-03T04:26:48.088Z,89.52
2022-12-03T04:27:48.066Z,89.52
2022-12-03T04:28:48.066Z,89.41
2022-12-03T04:29:48.044Z,89.31
2022-12-03T04:30:48.064Z,89.52
2022-12-03T04:31:48.016Z,89.73
2022-12-03T04:32:48.024Z,89.94
2022-12-03T04:33:47.987Z,89.73
2022-12-03T04:34:47.980Z,89.73
2022-12-03T04:35:48.069Z,89.94
2022-12-03T04:36:47.959Z,89.73
2022-12-03T04:37:47.936Z,90.04
2022-12-03T04:38:47.920Z,90.14
2022-12-03T04:39:47.911Z,90.25
2022-12-03T04:40:47.900Z,90.25
2022-12-03T04:41:47.884Z,90.25
2022-12-03T04:42:47.865Z,90.45
2022-12-03T04:43:47.855Z,90.45
2022-12-03T04:44:47.839Z,90.56
2022-12-03T04:45:47.876Z,90.62
2022-12-03T04:46:47.815Z,90.66
2022-12-03T04:47:47.798Z,90.45
2022-12-03T04:48:47.808Z,90.77
2022-12-03T04:49:47.774Z,90.77
2022-12-03T04:50:47.759Z,90.87
2022-12-03T04:51:47.743Z,90.77
2022-12-03T04:52:47.737Z,90.45
2022-12-03T04:53:47.724Z,90.14
2022-12-03T04:54:47.711Z,90.04
2022-12-03T04:55:47.689Z,90.14
2022-12-03T04:56:47.683Z,90.14
2022-12-03T04:57:47.663Z,90.14
2022-12-03T04:58:47.649Z,89.83
2022-12-03T04:59:47.639Z,89.94
2022-12-03T05:00:47.624Z,90.14
2022-12-03T05:01:47.709Z,89.98
2022-12-03T05:02:47.713Z,89.94
2022-12-03T05:03:47.589Z,90.14
2022-12-03T05:04:47.596Z,89.83
2022-12-03T05:05:47.551Z,89.83
2022-12-03T05:06:47.544Z,89.73
2022-12-03T05:07:47.574Z,89.31
2022-12-03T05:08:47.520Z,89.41
2022-12-03T05:09:47.509Z,89.73
2022-12-03T05:10:47.485Z,90.14
2022-12-03T05:11:47.473Z,90.25
2022-12-03T05:12:47.468Z,90.66
2022-12-03T05:13:47.446Z,90.77
2022-12-03T05:14:47.432Z,90.77
2022-12-03T05:15:47.422Z,90.56
2022-12-03T05:16:47.474Z,89.94
2022-12-03T05:17:47.399Z,89.62
2022-12-03T05:18:47.387Z,89.73
2022-12-03T05:19:47.367Z,89.62
2022-12-03T05:20:53.272Z,89.48
2022-12-03T05:21:48.366Z,89.27
2022-12-03T05:22:47.332Z,89.37
2022-12-03T05:23:47.315Z,89.27
2022-12-03T05:24:47.309Z,88.79
2022-12-03T05:25:47.288Z,88.68
2022-12-03T05:26:47.282Z,88.64
2022-12-03T05:27:47.258Z,88.48
2022-12-03T05:28:47.245Z,88.48
2022-12-03T05:29:47.235Z,88.54
2022-12-03T05:30:47.309Z,88.75
2022-12-03T05:31:47.204Z,88.58
2022-12-03T05:32:47.197Z,89.20
2022-12-03T05:33:47.183Z,89.52
2022-12-03T05:34:47.168Z,89.83
2022-12-03T05:35:47.156Z,89.83
2022-12-03T05:36:47.163Z,89.73
2022-12-03T05:37:47.123Z,89.73
2022-12-03T05:38:47.109Z,89.52
2022-12-03T05:39:47.101Z,89.27
2022-12-03T05:40:47.087Z,89.10
2022-12-03T05:41:47.068Z,89.00
2022-12-03T05:42:47.060Z,88.68
2022-12-03T05:43:47.049Z,88.89
2022-12-03T05:44:47.036Z,88.89
2022-12-03T05:45:47.114Z,88.96
2022-12-03T05:46:47.078Z,88.75
2022-12-03T05:47:46.997Z,88.79
2022-12-03T05:48:46.977Z,89.00
2022-12-03T05:49:46.963Z,88.96
2022-12-03T05:50:46.953Z,89.10
2022-12-03T05:51:46.939Z,89.00
2022-12-03T05:52:46.947Z,89.00
2022-12-03T05:53:46.910Z,89.00
2022-12-03T05:54:46.901Z,88.85
2022-12-03T05:55:46.885Z,88.75
2022-12-03T05:56:46.871Z,89.00
2022-12-03T05:57:47.211Z,89.06
2022-12-03T05:58:46.841Z,88.75
2022-12-03T05:59:46.833Z,88.68
2022-12-03T06:00:46.811Z,88.54
2022-12-03T06:01:46.811Z,88.48
2022-12-03T06:02:46.904Z,88.33
2022-12-03T06:03:47.024Z,88.33
2022-12-03T06:04:46.760Z,88.23
2022-12-03T06:05:46.745Z,88.23
2022-12-03T06:06:46.733Z,88.12
2022-12-03T06:07:46.806Z,88.02
2022-12-03T06:08:46.739Z,88.06
2022-12-03T06:09:46.695Z,87.96
2022-12-03T06:10:46.681Z,88.27
2022-12-03T06:11:46.670Z,88.27
2022-12-03T06:12:46.667Z,88.27
2022-12-03T06:13:46.645Z,88.12
2022-12-03T06:14:46.639Z,88.02
2022-12-03T06:15:46.687Z,87.96
2022-12-03T06:16:46.682Z,87.92
2022-12-03T06:17:46.594Z,87.92
2022-12-03T06:18:46.575Z,87.92
2022-12-03T06:19:46.562Z,87.96
2022-12-03T06:20:46.548Z,88.12
2022-12-03T06:21:46.538Z,88.37
2022-12-03T06:22:46.522Z,88.23
2022-12-03T06:23:46.508Z,88.27
2022-12-03T06:24:46.518Z,88.12
2022-12-03T06:25:46.481Z,88.06
2022-12-03T06:26:46.469Z,87.92
2022-12-03T06:27:46.453Z,87.71
2022-12-03T06:28:46.470Z,87.60
2022-12-03T06:29:46.424Z,87.50
2022-12-03T06:30:46.466Z,87.50
2022-12-03T06:31:46.525Z,87.50
2022-12-03T06:32:46.390Z,87.43
2022-12-03T06:33:46.385Z,87.50
2022-12-03T06:34:46.355Z,87.50
2022-12-03T06:35:46.345Z,87.60
2022-12-03T06:36:46.330Z,87.50
2022-12-03T06:37:46.322Z,87.60
2022-12-03T06:38:46.308Z,87.81
2022-12-03T06:39:46.290Z,87.92
2022-12-03T06:40:46.300Z,88.06
2022-12-03T06:41:46.268Z,88.02
2022-12-03T06:42:46.254Z,88.02
2022-12-03T06:43:46.239Z,88.02
2022-12-03T06:44:46.222Z,87.92
2022-12-03T06:45:47.971Z,87.96
2022-12-03T06:46:46.317Z,88.02
2022-12-03T06:47:46.181Z,88.17
2022-12-03T06:48:46.172Z,88.12
2022-12-03T06:49:46.160Z,87.96
2022-12-03T06:50:46.144Z,88.06
2022-12-03T06:51:46.129Z,87.92
2022-12-03T06:52:46.116Z,88.02
2022-12-03T06:53:46.099Z,88.27
2022-12-03T06:54:46.089Z,88.33
2022-12-03T06:55:46.079Z,88.43
2022-12-03T06:56:46.089Z,88.48
2022-12-03T06:57:46.053Z,88.43
2022-12-03T06:58:46.029Z,88.64
2022-12-03T06:59:46.023Z,88.85
2022-12-03T07:00:46.011Z,88.75
2022-12-03T07:01:46.111Z,88.96
2022-12-03T07:02:46.177Z,89.27
2022-12-03T07:03:45.967Z,89.62
2022-12-03T07:04:52.361Z,89.31
2022-12-03T07:05:46.969Z,89.17
2022-12-03T07:06:45.922Z,89.27
2022-12-03T07:07:45.994Z,89.48
2022-12-03T07:08:45.898Z,90.00
2022-12-03T07:09:45.887Z,90.20
2022-12-03T07:10:45.872Z,90.20
2022-12-03T07:11:45.862Z,90.10
2022-12-03T07:12:45.866Z,90.00
2022-12-03T07:13:45.840Z,90.14
2022-12-03T07:14:45.817Z,89.89
2022-12-03T07:15:45.872Z,90.00
2022-12-03T07:16:45.797Z,89.69
2022-12-03T07:17:45.778Z,89.27
2022-12-03T07:18:45.763Z,88.96
2022-12-03T07:19:45.751Z,88.85
2022-12-03T07:20:45.736Z,88.92
2022-12-03T07:21:45.724Z,88.81
2022-12-03T07:22:45.707Z,88.75
2022-12-03T07:23:45.700Z,88.64
2022-12-03T07:24:45.689Z,88.75
2022-12-03T07:25:45.667Z,88.60
2022-12-03T07:26:45.657Z,88.71
2022-12-03T07:27:45.648Z,88.50
2022-12-03T07:28:45.666Z,88.60
2022-12-03T07:29:45.617Z,88.60
2022-12-03T07:30:45.606Z,88.71
2022-12-03T07:31:45.810Z,88.75
2022-12-03T07:32:45.579Z,89.12
2022-12-03T07:33:45.563Z,89.54
2022-12-03T07:34:45.549Z,89.75
2022-12-03T07:35:45.535Z,90.16
2022-12-03T07:36:45.522Z,90.79
2022-12-03T07:37:45.506Z,91.00
2022-12-03T07:38:45.495Z,91.31
2022-12-03T07:39:45.485Z,91.20
2022-12-03T07:40:45.469Z,91.10
2022-12-03T07:41:45.460Z,91.52
2022-12-03T07:42:45.439Z,91.52
2022-12-03T07:43:45.429Z,91.52
2022-12-03T07:44:45.552Z,91.52
2022-12-03T07:45:45.405Z,90.89
2022-12-03T07:46:45.451Z,90.75
2022-12-03T07:47:45.372Z,90.69
2022-12-03T07:48:45.362Z,90.58
2022-12-03T07:49:45.348Z,90.23
2022-12-03T07:50:45.329Z,89.50
2022-12-03T07:51:45.321Z,89.18
2022-12-03T07:52:45.306Z,89.50
2022-12-03T07:53:45.293Z,90.06
2022-12-03T07:54:45.280Z,90.33
2022-12-03T07:55:45.268Z,90.47
2022-12-03T07:56:45.251Z,90.47
2022-12-03T07:57:45.235Z,90.44
2022-12-03T07:58:45.222Z,91.10
2022-12-03T07:59:45.212Z,90.69
2022-12-03T08:00:45.297Z,91.10
2022-12-03T08:01:45.240Z,91.72
2022-12-03T08:02:45.231Z,91.52
2022-12-03T08:03:45.161Z,91.68
2022-12-03T08:04:45.138Z,91.83
2022-12-03T08:05:45.129Z,91.83
2022-12-03T08:06:45.114Z,91.62
2022-12-03T08:07:45.195Z,91.99
2022-12-03T08:08:45.087Z,91.83
2022-12-03T08:09:45.074Z,91.93
2022-12-03T08:10:45.062Z,91.83
2022-12-03T08:11:45.052Z,91.83
2022-12-03T08:12:45.039Z,91.89
2022-12-03T08:13:45.025Z,92.14
2022-12-03T08:14:45.005Z,91.52
2022-12-03T08:15:44.998Z,91.52
2022-12-03T08:16:45.115Z,91.31
2022-12-03T08:17:44.970Z,91.58
2022-12-03T08:18:44.951Z,91.68
2022-12-03T08:19:44.941Z,92.20
2022-12-03T08:20:44.922Z,92.72
2022-12-03T08:21:44.913Z,92.20
2022-12-03T08:22:44.904Z,91.47
2022-12-03T08:23:44.884Z,91.37
2022-12-03T08:24:44.874Z,91.99
2022-12-03T08:25:44.862Z,92.51
2022-12-03T08:26:44.847Z,92.72
2022-12-03T08:27:44.837Z,92.41
2022-12-03T08:28:44.813Z,92.14
2022-12-03T08:29:44.815Z,91.99
2022-12-03T08:30:44.786Z,92.30
2022-12-03T08:31:44.827Z,92.55
2022-12-03T08:32:44.784Z,92.10
2022-12-03T08:33:44.751Z,91.78
2022-12-03T08:34:44.736Z,92.20
2022-12-03T08:35:44.722Z,92.20
2022-12-03T08:36:44.707Z,91.99
2022-12-03T08:37:44.701Z,92.10
2022-12-03T08:38:44.682Z,93.03
2022-12-03T08:39:44.673Z,92.72
2022-12-03T08:40:44.654Z,92.68
2022-12-03T08:41:44.640Z,92.10
2022-12-03T08:42:44.628Z,91.78
2022-12-03T08:43:44.614Z,91.89
2022-12-03T08:44:44.598Z,91.64
2022-12-03T08:45:44.729Z,91.33
2022-12-03T08:46:44.580Z,91.16
2022-12-03T08:47:44.580Z,91.33
2022-12-03T08:48:48.665Z,90.91
2022-12-03T08:49:44.539Z,91.12
2022-12-03T08:50:44.517Z,91.12
2022-12-03T08:51:44.503Z,90.91
2022-12-03T08:52:44.492Z,91.12
2022-12-03T08:53:44.483Z,90.50
2022-12-03T08:54:44.468Z,91.22
2022-12-03T08:55:44.456Z,91.33
2022-12-03T08:56:44.442Z,91.43
2022-12-03T08:57:44.444Z,91.89
2022-12-03T08:58:44.414Z,91.64
2022-12-03T08:59:45.832Z,91.64
2022-12-03T09:00:44.464Z,91.95
2022-12-03T09:01:44.535Z,91.43
2022-12-03T09:02:44.356Z,91.64
2022-12-03T09:03:44.366Z,91.22
2022-12-03T09:04:44.351Z,91.53
2022-12-03T09:05:44.315Z,91.64
2022-12-03T09:06:44.306Z,91.33
2022-12-03T09:07:44.335Z,91.02
2022-12-03T09:08:44.271Z,91.85
2022-12-03T09:09:44.266Z,92.47
2022-12-03T09:10:44.249Z,92.36
2022-12-03T09:11:44.245Z,92.47
2022-12-03T09:12:44.273Z,92.36
2022-12-03T09:13:44.204Z,92.88
2022-12-03T09:14:44.193Z,92.63
2022-12-03T09:15:44.178Z,91.80
2022-12-03T09:16:44.290Z,92.11
2022-12-03T09:17:44.152Z,91.28
2022-12-03T09:18:44.141Z,93.30
2022-12-03T09:19:46.173Z,92.57
2022-12-03T09:20:44.133Z,92.32
2022-12-03T09:21:44.095Z,92.11
2022-12-03T09:22:44.082Z,92.28
2022-12-03T09:23:44.070Z,92.94
2022-12-03T09:24:44.063Z,92.28
2022-12-03T09:25:44.043Z,91.55
2022-12-03T09:26:44.028Z,92.80
2022-12-03T09:27:44.021Z,92.38
2022-12-03T09:28:44.004Z,94.88
2022-12-03T09:29:43.992Z,94.78
2022-12-03T09:30:43.980Z,93.43
2022-12-03T09:31:44.009Z,92.28
2022-12-03T09:32:43.946Z,94.05
2022-12-03T09:33:43.941Z,94.88
2022-12-03T09:34:43.918Z,94.05
2022-12-03T09:35:43.913Z,95.56
2022-12-03T09:36:43.919Z,95.50
2022-12-03T09:37:43.886Z,93.53
2022-12-03T09:38:47.626Z,94.67
2022-12-03T09:39:43.859Z,95.19
2022-12-03T09:40:43.836Z,94.53
2022-12-03T09:41:43.825Z,93.84
2022-12-03T09:42:43.814Z,94.88
2022-12-03T09:44:03.389Z,94.78
2022-12-03T09:44:44.807Z,94.82
2022-12-03T09:45:43.922Z,95.03
2022-12-03T09:46:43.766Z,94.30
2022-12-03T09:47:43.750Z,94.67
2022-12-03T09:48:43.730Z,94.26
2022-12-03T09:49:43.723Z,93.78
2022-12-03T09:50:43.701Z,93.68
2022-12-03T09:51:43.709Z,94.36
2022-12-03T09:52:43.798Z,95.65
2022-12-03T09:53:43.669Z,95.44
2022-12-03T09:54:47.252Z,95.86
2022-12-03T09:55:43.641Z,96.27
2022-12-03T09:56:43.654Z,96.27
2022-12-03T09:57:43.612Z,94.71
2022-12-03T09:58:43.594Z,94.09
2022-12-03T09:59:43.590Z,94.71
2022-12-03T10:00:43.569Z,97.10
2022-12-03T10:01:43.701Z,96.37
2022-12-03T10:02:43.538Z,97.62
2022-12-03T10:03:43.530Z,96.62
2022-12-03T10:04:43.582Z,96.31
2022-12-03T10:05:47.923Z,96.42
2022-12-03T10:06:45.978Z,96.31
2022-12-03T10:07:43.530Z,95.59
2022-12-03T10:08:43.481Z,97.00
2022-12-03T10:09:43.451Z,97.52
2022-12-03T10:10:43.432Z,96.83
2022-12-03T10:11:43.423Z,96.06
2022-12-03T10:12:43.409Z,96.62
2022-12-03T10:13:43.388Z,95.86
2022-12-03T10:14:43.383Z,96.06
2022-12-03T10:15:43.368Z,96.11
2022-12-03T10:16:43.475Z,96.06
2022-12-03T10:17:43.342Z,96.00
2022-12-03T10:18:43.325Z,96.42
2022-12-03T10:19:43.321Z,96.37
2022-12-03T10:20:43.301Z,96.69
2022-12-03T10:21:43.291Z,96.89
2022-12-03T10:22:43.276Z,97.98
2022-12-03T10:23:43.256Z,97.45
2022-12-03T10:24:43.271Z,97.62
2022-12-03T10:25:43.230Z,96.73
2022-12-03T10:26:43.217Z,96.79
2022-12-03T10:27:43.201Z,97.41
2022-12-03T10:28:43.189Z,96.21
2022-12-03T10:29:43.175Z,96.48
2022-12-03T10:30:43.246Z,97.77
2022-12-03T10:31:43.151Z,98.03
2022-12-03T10:32:43.136Z,97.83
2022-12-03T10:33:43.118Z,97.88
2022-12-03T10:34:43.111Z,98.29
2022-12-03T10:35:43.090Z,97.10
2022-12-03T10:36:43.078Z,97.93
2022-12-03T10:37:43.065Z,98.71
2022-12-03T10:38:43.059Z,97.56
2022-12-03T10:39:43.043Z,97.72
2022-12-03T10:40:43.049Z,96.27
2022-12-03T10:41:43.010Z,97.52
2022-12-03T10:42:42.997Z,98.60
2022-12-03T10:43:42.982Z,97.14
2022-12-03T10:44:42.974Z,96.37
2022-12-03T10:45:43.036Z,97.31
2022-12-03T10:46:43.103Z,97.41
2022-12-03T10:47:43.061Z,97.83
2022-12-03T10:48:42.916Z,97.62
2022-12-03T10:49:42.901Z,97.52
2022-12-03T10:50:42.890Z,97.10
2022-12-03T10:51:42.877Z,98.14
2022-12-03T10:52:42.862Z,97.93
2022-12-03T10:53:42.851Z,97.00
2022-12-03T10:54:42.836Z,96.58
2022-12-03T10:55:42.825Z,98.55
2022-12-03T10:56:42.831Z,98.50
2022-12-03T10:57:45.884Z,97.52
2022-12-03T10:58:42.784Z,98.14
2022-12-03T10:59:42.770Z,98.03
2022-12-03T11:00:42.755Z,97.62
2022-12-03T11:01:42.953Z,97.52
2022-12-03T11:02:42.732Z,97.72
2022-12-03T11:03:42.817Z,98.97
2022-12-03T11:04:42.700Z,98.35
2022-12-03T11:05:42.685Z,97.31
2022-12-03T11:06:42.675Z,98.20
2022-12-03T11:07:42.710Z,97.83
2022-12-03T11:08:42.648Z,98.76
2022-12-03T11:09:42.631Z,97.20
2022-12-03T11:10:42.616Z,97.41
2022-12-03T11:11:42.606Z,97.52
2022-12-03T11:12:42.638Z,98.14
2022-12-03T11:13:42.576Z,99.49
2022-12-03T11:14:42.562Z,98.86
2022-12-03T11:15:42.597Z,98.45
2022-12-03T11:16:42.538Z,97.10
2022-12-03T11:17:42.522Z,99.07
2022-12-03T11:18:42.509Z,98.55
2022-12-03T11:19:42.500Z,97.20
2022-12-03T11:20:42.484Z,98.24
2022-12-03T11:21:42.475Z,98.20
2022-12-03T11:22:42.467Z,98.14
2022-12-03T11:23:42.441Z,98.66
2022-12-03T11:24:42.434Z,98.66
2022-12-03T11:25:42.419Z,98.45
2022-12-03T11:26:42.402Z,98.76
2022-12-03T11:27:42.384Z,98.76
2022-12-03T11:28:42.400Z,98.55
2022-12-03T11:29:42.364Z,98.66
2022-12-03T11:30:42.428Z,99.28
2022-12-03T11:31:42.614Z,97.10
2022-12-03T11:32:42.325Z,98.03
2022-12-03T11:33:42.321Z,97.72
2022-12-03T11:34:42.293Z,98.24
2022-12-03T11:35:42.278Z,97.62
2022-12-03T11:37:00.697Z,98.45
2022-12-03T11:37:43.274Z,99.99
2022-12-03T11:38:46.139Z,99.59
2022-12-03T11:39:43.250Z,98.97
2022-12-03T11:40:42.210Z,98.45
2022-12-03T11:41:42.198Z,98.14
2022-12-03T11:42:42.187Z,98.55
2022-12-03T11:43:42.170Z,98.03
2022-12-03T11:44:42.180Z,99.28
2022-12-03T11:45:42.142Z,98.86
2022-12-03T11:46:42.230Z,98.24
2022-12-03T11:47:42.130Z,98.97
2022-12-03T11:48:42.106Z,99.07
2022-12-03T11:49:42.090Z,98.86
2022-12-03T11:50:42.074Z,99.80
2022-12-03T11:51:42.116Z,98.24
2022-12-03T11:52:42.046Z,98.86
2022-12-03T11:53:42.040Z,97.52
2022-12-03T11:54:42.022Z,97.93
2022-12-03T11:55:42.016Z,98.55
2022-12-03T11:56:41.995Z,99.49
2022-12-03T11:57:41.980Z,98.35
2022-12-03T11:58:41.967Z,97.98
2022-12-03T11:59:41.952Z,98.60
2022-12-03T12:00:41.966Z,98.66
2022-12-03T12:01:41.927Z,98.86
2022-12-03T12:02:41.953Z,98.66
2022-12-03T12:03:42.050Z,98.55
2022-12-03T12:04:41.967Z,97.45
2022-12-03T12:05:41.876Z,97.67
2022-12-03T12:06:42.581Z,97.00
2022-12-03T12:07:41.893Z,97.62
2022-12-03T12:08:42.185Z,97.77
2022-12-03T12:09:41.823Z,98.24
2022-12-03T12:10:41.808Z,99.28
2022-12-03T12:11:41.840Z,98.03
2022-12-03T12:12:44.396Z,98.29
2022-12-03T12:13:42.792Z,96.79
2022-12-03T12:14:41.750Z,98.76
2022-12-03T12:15:41.935Z,98.24
2022-12-03T12:16:41.814Z,97.93
2022-12-03T12:17:41.714Z,96.69
2022-12-03T12:18:41.694Z,97.62
2022-12-03T12:19:41.685Z,98.55
2022-12-03T12:20:41.668Z,98.55
2022-12-03T12:21:41.696Z,97.52
2022-12-03T12:22:41.646Z,98.76
2022-12-03T12:23:41.627Z,99.07
2022-12-03T12:24:41.615Z,97.93
2022-12-03T12:25:41.603Z,98.35
2022-12-03T12:26:41.587Z,97.67
2022-12-03T12:27:41.573Z,97.93
2022-12-03T12:28:41.565Z,98.24
2022-12-03T12:29:41.544Z,99.99
2022-12-03T12:30:41.540Z,98.86
2022-12-03T12:31:41.657Z,97.98
2022-12-03T12:32:41.529Z,99.54
2022-12-03T12:33:41.489Z,98.45
2022-12-03T12:34:41.479Z,98.24
2022-12-03T12:35:41.469Z,98.50
2022-12-03T12:36:41.455Z,97.77
2022-12-03T12:37:47.075Z,98.81
2022-12-03T12:38:42.453Z,98.08
2022-12-03T12:39:41.410Z,98.71
2022-12-03T12:40:41.402Z,99.28
2022-12-03T12:41:41.398Z,98.60
2022-12-03T12:42:41.374Z,98.71
2022-12-03T12:43:41.355Z,99.99
2022-12-03T12:44:41.349Z,98.19
2022-12-03T12:45:41.333Z,98.39
2022-12-03T12:46:48.958Z,99.33
2022-12-03T12:47:42.379Z,98.96
2022-12-03T12:48:41.319Z,98.44
2022-12-03T12:49:41.281Z,97.88
2022-12-03T12:50:41.265Z,98.13
2022-12-03T12:51:41.250Z,97.77
2022-12-03T12:52:41.244Z,98.08